createdAt,value
2023-05-11T00:01:36.119Z,99.90
2023-05-11T00:03:43.540Z,99.90
2023-05-11T00:05:52.372Z,99.90
2023-05-11T00:08:01.154Z,99.90
2023-05-11T00:10:08.783Z,99.90
2023-05-11T00:12:16.003Z,99.90
2023-05-11T00:14:23.198Z,99.90
2023-05-11T00:16:30.026Z,99.90
2023-05-11T00:18:37.259Z,99.90
2023-05-11T00:20:44.178Z,99.90
2023-05-11T00:22:51.260Z,99.80
2023-05-11T00:24:59.822Z,99.90
2023-05-11T00:27:07.108Z,99.90
2023-05-11T00:29:13.981Z,99.90
2023-05-11T00:31:21.397Z,99.90
2023-05-11T00:33:28.448Z,99.90
2023-05-11T00:35:35.587Z,99.90
2023-05-11T00:37:42.705Z,99.90
2023-05-11T00:39:49.987Z,99.90
2023-05-11T00:41:58.911Z,99.40
2023-05-11T00:44:06.143Z,99.80
2023-05-11T00:46:13.082Z,99.80
2023-05-11T00:48:20.410Z,99.70
2023-05-11T00:50:27.480Z,99.60
2023-05-11T00:52:34.922Z,99.60
2023-05-11T00:54:42.568Z,98.60
2023-05-11T00:56:49.959Z,98.50
2023-05-11T00:58:58.974Z,98.30
2023-05-11T01:01:06.326Z,98.20
2023-05-11T01:03:13.568Z,97.70
2023-05-11T01:05:20.947Z,97.60
2023-05-11T01:07:35.539Z,97.90
2023-05-11T01:09:50.962Z,97.70
2023-05-11T01:12:08.595Z,98.10
2023-05-11T01:14:23.603Z,98.70
2023-05-11T01:16:34.443Z,97.50
2023-05-11T01:18:46.969Z,98.10
2023-05-11T01:20:59.922Z,98.20
2023-05-11T01:23:26.917Z,99.20
2023-05-11T01:25:52.967Z,98.40
2023-05-11T01:28:26.314Z,98.50
2023-05-11T01:30:39.163Z,99.90
2023-05-11T01:32:49.313Z,99.90
2023-05-11T01:35:09.207Z,99.90
2023-05-11T01:37:21.046Z,99.90
2023-05-11T01:39:33.606Z,99.90
2023-05-11T01:41:42.423Z,99.80
2023-05-11T01:43:55.910Z,99.60
2023-05-11T01:46:06.916Z,98.20
2023-05-11T01:48:19.890Z,98.70
2023-05-11T01:50:28.914Z,96.20
2023-05-11T01:52:36.249Z,97.50
2023-05-11T01:54:45.335Z,97.10
2023-05-11T01:56:54.207Z,97.40
2023-05-11T01:59:02.865Z,97.20
2023-05-11T02:01:14.221Z,96.60
2023-05-11T02:03:24.267Z,97.20
2023-05-11T02:05:34.188Z,97.40
2023-05-11T02:07:44.551Z,96.70
2023-05-11T02:09:52.951Z,93.50
2023-05-11T02:12:01.926Z,94.00
2023-05-11T02:14:11.972Z,94.60
2023-05-11T02:16:21.958Z,94.20
2023-05-11T02:18:29.602Z,94.00
2023-05-11T02:20:37.773Z,93.80
2023-05-11T02:22:48.080Z,93.80
2023-05-11T02:24:55.406Z,94.10
2023-05-11T02:27:03.925Z,94.00
2023-05-11T02:29:10.962Z,93.30
2023-05-11T02:31:27.054Z,92.40
2023-05-11T02:33:37.967Z,91.90
2023-05-11T02:35:47.498Z,90.80
2023-05-11T02:37:57.192Z,90.80
2023-05-11T02:40:08.113Z,89.70
2023-05-11T02:42:21.972Z,89.20
2023-05-11T02:44:35.479Z,88.70
2023-05-11T02:46:44.943Z,89.40
2023-05-11T02:48:57.227Z,89.20
2023-05-11T02:51:07.213Z,88.70
2023-05-11T02:53:21.676Z,88.60
2023-05-11T02:55:29.238Z,88.00
2023-05-11T02:57:36.294Z,87.70
2023-05-11T02:59:46.382Z,87.40
2023-05-11T03:01:57.223Z,87.10
2023-05-11T03:04:06.997Z,86.20
2023-05-11T03:06:14.184Z,86.10
2023-05-11T03:08:21.404Z,85.40
2023-05-11T03:10:30.222Z,85.70
2023-05-11T03:12:37.201Z,85.70
2023-05-11T03:14:46.174Z,85.80
2023-05-11T03:16:55.371Z,85.00
2023-05-11T03:19:03.957Z,85.10
2023-05-11T03:21:11.611Z,85.00
2023-05-11T03:23:19.973Z,84.30
2023-05-11T03:25:28.128Z,83.70
2023-05-11T03:27:36.648Z,83.30
2023-05-11T03:29:46.534Z,83.50
2023-05-11T03:31:57.224Z,83.70
2023-05-11T03:34:05.206Z,83.80
2023-05-11T03:36:17.707Z,84.00
2023-05-11T03:38:26.988Z,83.60
2023-05-11T03:40:36.382Z,83.40
2023-05-11T03:42:44.784Z,83.40
2023-05-11T03:44:56.982Z,83.30
2023-05-11T03:47:08.619Z,83.00
2023-05-11T03:49:17.353Z,82.20
2023-05-11T03:51:24.934Z,82.20
2023-05-11T03:53:33.183Z,81.90
2023-05-11T03:55:40.525Z,81.70
2023-05-11T03:57:48.122Z,81.70
2023-05-11T03:59:55.190Z,81.60
2023-05-11T04:02:02.581Z,81.40
2023-05-11T04:04:11.313Z,81.40
2023-05-11T04:06:19.046Z,81.20
2023-05-11T04:08:31.085Z,80.20
2023-05-11T04:10:39.294Z,80.20
2023-05-11T04:12:46.058Z,79.50
2023-05-11T04:14:53.242Z,78.60
2023-05-11T04:17:00.578Z,78.80
2023-05-11T04:19:08.121Z,78.50
2023-05-11T04:21:17.245Z,78.20
2023-05-11T04:23:24.254Z,76.70
2023-05-11T04:25:31.100Z,76.90
2023-05-11T04:27:38.229Z,77.40
2023-05-11T04:29:45.996Z,77.50
2023-05-11T04:31:53.229Z,77.10
2023-05-11T04:34:00.202Z,77.50
2023-05-11T04:36:08.076Z,77.30
2023-05-11T04:38:16.746Z,77.10
2023-05-11T04:40:24.130Z,77.00
2023-05-11T04:42:34.023Z,76.60
2023-05-11T04:44:43.511Z,76.40
2023-05-11T04:46:51.798Z,76.20
2023-05-11T04:48:59.308Z,75.60
2023-05-11T04:51:09.999Z,75.20
2023-05-11T04:53:25.293Z,75.20
2023-05-11T04:55:32.218Z,75.10
2023-05-11T04:57:41.155Z,75.20
2023-05-11T04:59:48.021Z,75.20
2023-05-11T05:01:55.197Z,74.80
2023-05-11T05:04:03.840Z,74.70
2023-05-11T05:06:11.512Z,74.40
2023-05-11T05:08:18.643Z,73.10
2023-05-11T05:10:27.456Z,72.50
2023-05-11T05:12:34.436Z,72.40
2023-05-11T05:14:41.510Z,72.60
2023-05-11T05:16:48.446Z,71.40
2023-05-11T05:18:55.723Z,70.90
2023-05-11T05:21:02.709Z,70.90
2023-05-11T05:23:10.241Z,71.30
2023-05-11T05:25:17.232Z,70.90
2023-05-11T05:27:26.296Z,70.40
2023-05-11T05:29:33.938Z,69.20
2023-05-11T05:31:41.507Z,70.50
2023-05-11T05:33:49.431Z,70.50
2023-05-11T05:35:57.838Z,70.70
2023-05-11T05:38:05.583Z,69.40
2023-05-11T05:40:13.496Z,69.90
2023-05-11T05:42:35.215Z,69.00
2023-05-11T05:44:43.101Z,68.90
2023-05-11T05:46:50.234Z,68.80
2023-05-11T05:48:57.723Z,68.50
2023-05-11T05:51:04.595Z,67.80
2023-05-11T05:53:11.672Z,68.40
2023-05-11T05:55:18.859Z,68.60
2023-05-11T05:57:28.356Z,68.00
2023-05-11T05:59:36.903Z,68.30
2023-05-11T06:01:47.313Z,68.30
2023-05-11T06:03:56.954Z,68.20
2023-05-11T06:06:04.952Z,68.60
2023-05-11T06:08:12.644Z,68.90
2023-05-11T06:10:19.876Z,68.40
2023-05-11T06:12:27.415Z,68.40
2023-05-11T06:14:38.027Z,69.00
2023-05-11T06:16:45.197Z,68.70
2023-05-11T06:18:52.244Z,67.70
2023-05-11T06:21:00.252Z,67.50
2023-05-11T06:23:09.027Z,67.00
2023-05-11T06:25:19.106Z,66.50
2023-05-11T06:27:26.850Z,65.40
2023-05-11T06:29:38.167Z,66.10
2023-05-11T06:31:45.624Z,67.00
2023-05-11T06:33:53.314Z,67.00
2023-05-11T06:36:08.992Z,67.00
2023-05-11T06:38:16.574Z,66.30
2023-05-11T06:40:23.920Z,66.30
2023-05-11T06:42:31.257Z,66.00
2023-05-11T06:44:48.933Z,65.50
2023-05-11T06:46:56.255Z,65.30
2023-05-11T06:49:03.607Z,65.30
2023-05-11T06:51:14.161Z,65.40
2023-05-11T06:53:23.557Z,64.70
2023-05-11T06:55:30.786Z,64.30
2023-05-11T06:57:38.019Z,63.90
2023-05-11T06:59:45.609Z,64.00
2023-05-11T07:01:54.537Z,64.00
2023-05-11T07:04:02.016Z,63.80
2023-05-11T07:06:09.405Z,63.20
2023-05-11T07:08:16.945Z,63.20
2023-05-11T07:10:23.869Z,63.20
2023-05-11T07:12:31.104Z,63.20
2023-05-11T07:14:38.179Z,62.80
2023-05-11T07:16:45.567Z,63.20
2023-05-11T07:18:54.255Z,63.90
2023-05-11T07:21:02.024Z,64.30
2023-05-11T07:23:09.006Z,64.10
2023-05-11T07:25:16.114Z,64.40
2023-05-11T07:27:23.217Z,64.40
2023-05-11T07:29:30.550Z,62.50
2023-05-11T07:31:37.670Z,63.20
2023-05-11T07:33:45.116Z,63.10
2023-05-11T07:35:54.702Z,63.40
2023-05-11T07:38:02.091Z,63.50
2023-05-11T07:40:10.195Z,63.60
2023-05-11T07:42:17.679Z,63.60
2023-05-11T07:44:24.937Z,63.60
2023-05-11T07:46:32.430Z,63.60
2023-05-11T07:48:39.642Z,63.70
2023-05-11T07:50:47.627Z,63.60
2023-05-11T07:52:56.614Z,63.50
2023-05-11T07:55:03.853Z,63.60
2023-05-11T07:57:12.354Z,63.50
2023-05-11T07:59:19.640Z,63.10
2023-05-11T08:01:26.718Z,61.80
2023-05-11T08:03:34.296Z,61.30
2023-05-11T08:05:41.551Z,61.20
2023-05-11T08:07:49.460Z,62.00
2023-05-11T08:09:58.367Z,61.80
2023-05-11T08:12:05.867Z,61.50
2023-05-11T08:14:13.136Z,61.70
2023-05-11T08:16:22.773Z,62.20
2023-05-11T08:18:29.970Z,62.00
2023-05-11T08:20:37.255Z,62.60
2023-05-11T08:22:44.426Z,62.60
2023-05-11T08:24:52.481Z,62.50
2023-05-11T08:27:01.143Z,61.30
2023-05-11T08:29:08.695Z,61.80
2023-05-11T08:31:16.795Z,61.80
2023-05-11T08:33:36.645Z,61.50
2023-05-11T08:35:45.140Z,62.20
2023-05-11T08:37:52.770Z,62.50
2023-05-11T08:40:00.154Z,63.10
2023-05-11T08:42:10.618Z,63.70
2023-05-11T08:44:19.396Z,63.60
2023-05-11T08:46:29.851Z,63.00
2023-05-11T08:48:37.029Z,63.20
2023-05-11T08:50:44.358Z,63.00
2023-05-11T08:52:51.445Z,62.10
2023-05-11T08:54:58.671Z,62.00
2023-05-11T08:57:07.299Z,62.90
2023-05-11T08:59:18.459Z,63.10
2023-05-11T09:01:26.654Z,63.50
2023-05-11T09:03:34.462Z,63.20
2023-05-11T09:05:41.473Z,62.80
2023-05-11T09:07:54.098Z,62.80
2023-05-11T09:10:00.911Z,62.80
2023-05-11T09:12:09.034Z,62.60
2023-05-11T09:14:17.645Z,62.60
2023-05-11T09:16:36.301Z,62.20
2023-05-11T09:18:51.314Z,62.20
2023-05-11T09:20:58.699Z,62.40
2023-05-11T09:23:05.821Z,62.30
2023-05-11T09:25:15.983Z,61.30
2023-05-11T09:27:23.261Z,61.20
2023-05-11T09:29:32.085Z,61.00
2023-05-11T09:31:40.247Z,61.20
2023-05-11T09:33:47.468Z,62.00
2023-05-11T09:35:54.803Z,62.50
2023-05-11T09:38:08.853Z,62.30
2023-05-11T09:40:26.844Z,62.00
2023-05-11T09:42:34.628Z,62.30
2023-05-11T09:44:44.273Z,62.20
2023-05-11T09:46:51.411Z,62.40
2023-05-11T09:49:03.289Z,62.00
2023-05-11T09:51:11.804Z,62.30
2023-05-11T09:53:18.732Z,62.50
2023-05-11T09:55:25.997Z,62.30
2023-05-11T09:57:34.217Z,62.30
2023-05-11T09:59:43.753Z,62.60
2023-05-11T10:01:50.898Z,62.90
2023-05-11T10:04:06.077Z,62.80
2023-05-11T10:06:20.707Z,62.90
2023-05-11T10:08:33.012Z,63.10
2023-05-11T10:10:40.261Z,63.40
2023-05-11T10:12:47.272Z,63.40
2023-05-11T10:14:57.734Z,63.10
2023-05-11T10:17:06.251Z,63.40
2023-05-11T10:19:13.330Z,63.50
2023-05-11T10:21:21.375Z,63.70
2023-05-11T10:23:29.429Z,63.50
2023-05-11T10:25:38.094Z,63.00
2023-05-11T10:27:44.940Z,63.20
2023-05-11T10:29:52.562Z,63.50
2023-05-11T10:32:02.382Z,63.70
2023-05-11T10:34:10.153Z,64.10
2023-05-11T10:36:19.318Z,64.00
2023-05-11T10:38:27.464Z,64.30
2023-05-11T10:40:38.280Z,65.20
2023-05-11T10:43:26.812Z,65.20
2023-05-11T10:45:39.361Z,65.60
2023-05-11T10:48:26.087Z,66.50
2023-05-11T10:50:55.773Z,67.00
2023-05-11T10:53:32.676Z,66.90
2023-05-11T10:55:55.166Z,67.50
2023-05-11T10:58:11.646Z,67.70
2023-05-11T11:01:05.924Z,67.80
2023-05-11T11:03:18.279Z,68.80
2023-05-11T11:05:37.230Z,68.40
2023-05-11T11:08:04.844Z,68.30
2023-05-11T11:10:14.157Z,69.20
2023-05-11T11:12:21.593Z,69.50
2023-05-11T11:14:28.575Z,69.60
2023-05-11T11:16:36.061Z,69.90
2023-05-11T11:18:44.610Z,71.10
2023-05-11T11:20:52.547Z,71.30
2023-05-11T11:22:59.205Z,71.30
2023-05-11T11:25:07.201Z,70.60
2023-05-11T11:27:14.059Z,70.20
2023-05-11T11:29:20.949Z,70.80
2023-05-11T11:31:28.536Z,71.10
2023-05-11T11:33:37.113Z,71.20
2023-05-11T11:35:51.869Z,71.70
2023-05-11T11:38:04.986Z,74.20
2023-05-11T11:40:15.463Z,74.80
2023-05-11T11:42:35.546Z,75.90
2023-05-11T11:44:43.334Z,76.80
2023-05-11T11:46:50.795Z,76.90
2023-05-11T11:49:11.119Z,76.00
2023-05-11T11:51:20.190Z,76.60
2023-05-11T11:54:09.614Z,76.10
2023-05-11T11:56:43.118Z,75.20
2023-05-11T11:59:02.076Z,75.40
2023-05-11T12:01:09.801Z,77.00
2023-05-11T12:03:25.899Z,77.60
2023-05-11T12:05:34.056Z,78.30
2023-05-11T12:07:46.247Z,79.20
2023-05-11T12:09:53.856Z,80.40
2023-05-11T12:12:01.748Z,80.70
2023-05-11T12:14:09.445Z,80.60
2023-05-11T12:16:17.915Z,80.00
2023-05-11T12:18:28.426Z,80.20
2023-05-11T12:20:37.127Z,81.70
2023-05-11T12:22:47.843Z,81.90
2023-05-11T12:25:00.331Z,81.80
2023-05-11T12:27:08.790Z,82.00
2023-05-11T12:29:16.646Z,82.10
2023-05-11T12:31:24.226Z,82.10
2023-05-11T12:33:31.123Z,82.00
2023-05-11T12:35:41.374Z,82.50
2023-05-11T12:37:51.379Z,83.10
2023-05-11T12:39:59.628Z,83.60
2023-05-11T12:42:06.915Z,83.90
2023-05-11T12:44:14.820Z,84.30
2023-05-11T12:46:22.831Z,84.50
2023-05-11T12:48:30.048Z,84.00
2023-05-11T12:50:42.550Z,83.80
2023-05-11T12:52:51.886Z,83.60
2023-05-11T12:55:00.733Z,83.70
2023-05-11T12:57:09.733Z,84.10
2023-05-11T12:59:29.806Z,84.50
2023-05-11T13:01:37.906Z,85.00
2023-05-11T13:03:50.270Z,84.90
2023-05-11T13:06:09.121Z,85.20
2023-05-11T13:08:19.173Z,85.80
2023-05-11T13:10:28.817Z,85.70
2023-05-11T13:12:36.254Z,85.70
2023-05-11T13:14:44.157Z,85.80
2023-05-11T13:16:57.743Z,85.60
2023-05-11T13:19:06.011Z,85.20
2023-05-11T13:21:12.963Z,85.10
2023-05-11T13:23:26.137Z,84.80
2023-05-11T13:25:33.149Z,84.20
2023-05-11T13:27:40.294Z,83.90
2023-05-11T13:29:47.424Z,83.80
2023-05-11T13:31:57.988Z,84.20
2023-05-11T13:34:05.524Z,84.50
2023-05-11T13:36:13.472Z,84.20
2023-05-11T13:38:22.294Z,84.30
2023-05-11T13:40:29.682Z,84.20
2023-05-11T13:42:36.779Z,84.20
2023-05-11T13:44:43.932Z,84.40
2023-05-11T13:46:51.427Z,85.00
2023-05-11T13:48:59.354Z,85.20
2023-05-11T13:51:06.826Z,85.20
2023-05-11T13:53:14.192Z,85.40
2023-05-11T13:55:22.855Z,85.60
2023-05-11T13:57:30.225Z,85.90
2023-05-11T13:59:37.194Z,86.50
2023-05-11T14:01:44.858Z,86.90
2023-05-11T14:03:56.915Z,87.30
2023-05-11T14:06:04.155Z,87.50
2023-05-11T14:08:11.440Z,87.50
2023-05-11T14:10:19.266Z,87.50
2023-05-11T14:12:28.108Z,87.70
2023-05-11T14:14:35.852Z,87.10
2023-05-11T14:16:42.955Z,86.80
2023-05-11T14:18:51.589Z,87.10
2023-05-11T14:20:59.653Z,87.80
2023-05-11T14:23:07.602Z,88.40
2023-05-11T14:25:14.734Z,89.40
2023-05-11T14:27:22.121Z,89.70
2023-05-11T14:29:31.201Z,89.80
2023-05-11T14:31:38.735Z,90.00
2023-05-11T14:33:45.661Z,90.20
2023-05-11T14:35:53.153Z,90.20
2023-05-11T14:38:00.010Z,90.30
2023-05-11T14:40:07.721Z,90.10
2023-05-11T14:42:15.163Z,90.00
2023-05-11T14:44:26.125Z,89.50
2023-05-11T14:46:35.151Z,89.20
2023-05-11T14:48:43.826Z,88.90
2023-05-11T14:50:51.049Z,88.60
2023-05-11T14:52:58.497Z,88.20
2023-05-11T14:55:05.617Z,88.10
2023-05-11T14:57:13.262Z,88.50
2023-05-11T14:59:20.388Z,87.90
2023-05-11T15:01:27.952Z,87.70
2023-05-11T15:03:38.156Z,87.50
2023-05-11T15:05:47.718Z,87.30
2023-05-11T15:07:54.934Z,87.30
2023-05-11T15:10:02.931Z,87.70
2023-05-11T15:12:10.541Z,87.50
2023-05-11T15:14:17.731Z,87.30
2023-05-11T15:16:24.972Z,87.30
2023-05-11T15:18:32.422Z,87.60
2023-05-11T15:20:41.376Z,87.80
2023-05-11T15:22:48.652Z,88.30
2023-05-11T15:24:56.077Z,88.70
2023-05-11T15:27:03.221Z,89.10
2023-05-11T15:29:10.509Z,89.10
2023-05-11T15:31:17.960Z,89.30
2023-05-11T15:33:25.606Z,89.20
2023-05-11T15:35:33.021Z,89.10
2023-05-11T15:37:41.899Z,89.10
2023-05-11T15:39:49.435Z,89.00
2023-05-11T15:41:56.617Z,89.40
2023-05-11T15:44:03.852Z,89.60
2023-05-11T15:46:10.796Z,89.60
2023-05-11T15:48:18.968Z,90.10
2023-05-11T15:50:26.861Z,90.40
2023-05-11T15:52:34.859Z,90.80
2023-05-11T15:54:44.527Z,91.20
2023-05-11T15:56:53.632Z,91.30
2023-05-11T15:59:01.350Z,91.40
2023-05-11T16:01:09.641Z,91.40
2023-05-11T16:03:17.913Z,91.50
2023-05-11T16:05:25.934Z,91.30
2023-05-11T16:07:33.880Z,91.20
2023-05-11T16:09:43.923Z,91.50
2023-05-11T16:11:51.763Z,91.70
2023-05-11T16:13:59.874Z,91.60
2023-05-11T16:16:08.127Z,91.80
2023-05-11T16:18:18.115Z,91.70
2023-05-11T16:20:26.449Z,91.60
2023-05-11T16:22:37.573Z,91.30
2023-05-11T16:24:51.077Z,91.00
2023-05-11T16:27:08.762Z,90.70
2023-05-11T16:29:23.570Z,90.80
2023-05-11T16:31:34.105Z,90.70
2023-05-11T16:33:48.478Z,90.60
2023-05-11T16:36:02.335Z,90.40
2023-05-11T16:38:26.250Z,90.20
2023-05-11T16:40:38.872Z,90.00
2023-05-11T16:42:50.817Z,89.70
2023-05-11T16:45:00.186Z,89.40
2023-05-11T16:47:14.266Z,89.10
2023-05-11T16:49:24.583Z,88.90
2023-05-11T16:51:35.673Z,88.90
2023-05-11T16:53:47.453Z,88.70
2023-05-11T16:56:00.787Z,88.50
2023-05-11T16:58:11.235Z,88.50
2023-05-11T17:00:26.298Z,88.50
2023-05-11T17:02:38.264Z,88.80
2023-05-11T17:04:53.013Z,89.20
2023-05-11T17:07:03.861Z,89.30
2023-05-11T17:09:16.354Z,89.30
2023-05-11T17:11:28.297Z,89.30
2023-05-11T17:13:42.455Z,89.20
2023-05-11T17:15:57.427Z,89.20
2023-05-11T17:18:05.171Z,89.30
2023-05-11T17:20:13.317Z,89.20
2023-05-11T17:22:20.661Z,89.50
2023-05-11T17:24:27.750Z,89.60
2023-05-11T17:26:46.941Z,89.40
2023-05-11T17:28:55.403Z,89.80
2023-05-11T17:31:10.368Z,90.10
2023-05-11T17:33:17.487Z,89.90
2023-05-11T17:35:24.622Z,89.90
2023-05-11T17:37:32.440Z,89.50
2023-05-11T17:39:39.962Z,89.40
2023-05-11T17:41:48.615Z,89.60
2023-05-11T17:43:56.012Z,89.60
2023-05-11T17:46:04.894Z,89.60
2023-05-11T17:48:12.757Z,90.00
2023-05-11T17:50:20.266Z,89.90
2023-05-11T17:52:28.628Z,90.10
2023-05-11T17:54:36.336Z,90.50
2023-05-11T17:56:43.915Z,90.60
2023-05-11T17:58:53.601Z,91.10
2023-05-11T18:01:00.843Z,91.40
2023-05-11T18:03:08.560Z,91.60
2023-05-11T18:05:16.068Z,91.50
2023-05-11T18:07:23.042Z,91.60
2023-05-11T18:09:30.120Z,91.70
2023-05-11T18:11:37.100Z,91.70
2023-05-11T18:13:44.233Z,91.90
2023-05-11T18:15:52.939Z,92.00
2023-05-11T18:18:00.455Z,92.00
2023-05-11T18:20:07.928Z,91.80
2023-05-11T18:22:15.311Z,91.70
2023-05-11T18:24:22.397Z,91.90
2023-05-11T18:26:29.826Z,92.10
2023-05-11T18:28:37.045Z,92.30
2023-05-11T18:30:44.456Z,92.30
2023-05-11T18:32:53.543Z,92.20
2023-05-11T18:35:01.023Z,92.00
2023-05-11T18:37:08.040Z,92.40
2023-05-11T18:39:15.515Z,92.70
2023-05-11T18:41:22.354Z,93.00
2023-05-11T18:43:29.586Z,93.10
2023-05-11T18:45:36.511Z,93.40
2023-05-11T18:47:45.517Z,93.40
2023-05-11T18:49:54.103Z,93.50
2023-05-11T18:52:01.540Z,93.60
2023-05-11T18:54:08.980Z,93.60
2023-05-11T18:56:16.323Z,93.50
2023-05-11T18:58:23.085Z,93.30
2023-05-11T19:00:30.287Z,93.30
2023-05-11T19:02:37.710Z,93.50
2023-05-11T19:04:44.732Z,93.40
2023-05-11T19:06:53.297Z,93.40
2023-05-11T19:09:00.385Z,93.20
2023-05-11T19:11:10.915Z,93.40
2023-05-11T19:13:18.218Z,94.10
2023-05-11T19:15:25.192Z,94.70
2023-05-11T19:17:32.253Z,95.50
2023-05-11T19:19:39.248Z,95.60
2023-05-11T19:21:46.876Z,96.00
2023-05-11T19:23:56.287Z,96.30
2023-05-11T19:26:04.017Z,96.30
2023-05-11T19:28:10.837Z,96.20
2023-05-11T19:30:18.415Z,96.20
2023-05-11T19:32:25.582Z,95.90
2023-05-11T19:34:32.747Z,95.40
2023-05-11T19:36:39.721Z,95.30
2023-05-11T19:38:46.801Z,95.10
2023-05-11T19:40:55.416Z,95.10
2023-05-11T19:43:03.058Z,95.00
2023-05-11T19:45:12.336Z,94.80
2023-05-11T19:47:19.622Z,94.70
2023-05-11T19:49:26.496Z,94.60
2023-05-11T19:51:33.625Z,94.70
2023-05-11T19:53:40.552Z,95.20
2023-05-11T19:55:48.285Z,95.30
2023-05-11T19:57:56.921Z,95.70
2023-05-11T20:00:04.398Z,95.50
2023-05-11T20:02:11.325Z,95.60
2023-05-11T20:04:18.403Z,95.80
2023-05-11T20:06:25.232Z,96.10
2023-05-11T20:08:32.465Z,96.50
2023-05-11T20:10:39.595Z,96.40
2023-05-11T20:12:46.638Z,96.40
2023-05-11T20:14:56.059Z,96.40
2023-05-11T20:17:03.440Z,96.40
2023-05-11T20:19:10.508Z,96.50
2023-05-11T20:21:18.440Z,96.50
2023-05-11T20:23:25.496Z,96.70
2023-05-11T20:25:32.644Z,96.90
2023-05-11T20:27:39.862Z,97.10
2023-05-11T20:29:46.684Z,97.50
2023-05-11T20:31:55.579Z,97.90
2023-05-11T20:36:12.544Z,97.90
2023-05-11T20:38:19.357Z,98.00
2023-05-11T20:40:27.255Z,97.90
2023-05-11T20:42:34.641Z,97.90
2023-05-11T20:44:41.723Z,98.20
2023-05-11T20:46:49.570Z,98.60
2023-05-11T20:48:58.335Z,98.70
2023-05-11T20:51:05.208Z,98.40
2023-05-11T20:53:12.340Z,98.30
2023-05-11T20:55:19.484Z,98.20
2023-05-11T20:57:26.503Z,98.10
2023-05-11T21:01:43.950Z,98.10
2023-05-11T21:03:51.047Z,98.10
2023-05-11T21:05:59.834Z,98.50
2023-05-11T21:08:06.706Z,98.80
2023-05-11T21:10:15.278Z,99.40
2023-05-11T21:12:22.045Z,99.90
2023-05-11T21:14:29.224Z,99.90
2023-05-11T21:16:36.051Z,99.90
2023-05-11T21:18:44.237Z,99.90
2023-05-11T21:20:51.179Z,99.90
2023-05-11T21:23:00.136Z,99.90
2023-05-11T21:25:08.104Z,99.90
2023-05-11T21:27:15.093Z,99.90
2023-05-11T21:29:22.212Z,99.90
2023-05-11T21:31:29.359Z,99.90
2023-05-11T21:33:36.473Z,99.90
2023-05-11T21:35:43.406Z,99.90
2023-05-11T21:37:51.807Z,99.90
2023-05-11T21:40:00.532Z,99.90
2023-05-11T21:42:08.067Z,99.90
2023-05-11T21:44:14.954Z,99.90
2023-05-11T21:46:22.116Z,99.90
2023-05-11T21:48:28.947Z,99.90
2023-05-11T21:50:36.434Z,99.90
2023-05-11T21:52:43.461Z,99.90
2023-05-11T21:54:50.490Z,99.80
2023-05-11T21:56:59.002Z,99.20
2023-05-11T21:59:05.981Z,98.70
2023-05-11T22:01:12.804Z,98.60
2023-05-11T22:03:20.349Z,98.30
2023-05-11T22:05:27.524Z,97.70
2023-05-11T22:07:34.612Z,96.90
2023-05-11T22:09:41.632Z,96.70
2023-05-11T22:11:48.764Z,96.50
2023-05-11T22:13:57.428Z,96.40
2023-05-11T22:16:04.582Z,96.30
2023-05-11T22:18:11.432Z,96.30
2023-05-11T22:20:18.980Z,96.40
2023-05-11T22:22:26.366Z,96.60
2023-05-11T22:24:33.594Z,96.70
2023-05-11T22:26:40.523Z,96.50
2023-05-11T22:28:48.219Z,96.20
2023-05-11T22:30:56.780Z,96.30
2023-05-11T22:33:04.055Z,96.40
2023-05-11T22:35:11.829Z,96.20
2023-05-11T22:37:18.941Z,96.40
2023-05-11T22:39:25.760Z,96.50
2023-05-11T22:41:32.943Z,96.40
2023-05-11T22:43:39.916Z,96.30
2023-05-11T22:45:46.965Z,96.30
2023-05-11T22:47:55.579Z,96.70
2023-05-11T22:50:02.891Z,97.10
2023-05-11T22:52:10.175Z,97.50
2023-05-11T22:54:18.842Z,97.50
2023-05-11T22:56:25.620Z,97.60
2023-05-11T22:58:33.006Z,97.60
2023-05-11T23:00:40.436Z,97.60
2023-05-11T23:02:47.604Z,97.70
2023-05-11T23:04:56.288Z,97.60
2023-05-11T23:07:03.621Z,97.90
2023-05-11T23:09:10.700Z,97.90
2023-05-11T23:11:17.782Z,98.40
2023-05-11T23:13:24.706Z,98.80
2023-05-11T23:15:31.852Z,99.30
2023-05-11T23:17:38.909Z,99.20
2023-05-11T23:19:46.104Z,99.10
2023-05-11T23:21:54.663Z,98.90
2023-05-11T23:24:02.052Z,99.00
2023-05-11T23:26:08.924Z,98.80
2023-05-11T23:28:16.005Z,98.50
2023-05-11T23:30:23.110Z,98.20
2023-05-11T23:32:30.485Z,98.20
2023-05-11T23:34:38.574Z,98.00
2023-05-11T23:36:45.867Z,97.70
2023-05-11T23:38:54.377Z,97.20
2023-05-11T23:41:01.654Z,96.60
2023-05-11T23:43:09.705Z,96.60
2023-05-11T23:45:16.683Z,97.00
2023-05-11T23:47:23.646Z,97.00
2023-05-11T23:49:30.902Z,96.70
2023-05-11T23:51:37.615Z,96.70
2023-05-11T23:53:44.794Z,96.40
2023-05-11T23:55:53.460Z,96.10
2023-05-11T23:58:00.760Z,96.20
